sensor_id;sensor_type;location;lat;lon;timestamp;pressure;altitude;pressure_sealevel;temperature;humidity
69316;BME280;56445;43.552;5.034;2023-05-18T05:00:22;101418.41;;;31.25;18.13
69316;BME280;56445;43.552;5.034;2023-05-18T05:02:53;101431.63;;;31.37;18.02
69316;BME280;56445;43.552;5.034;2023-05-18T05:05:21;101425.41;;;31.31;17.81
69316;BME280;56445;43.552;5.034;2023-05-18T05:07:52;101438.31;;;31.45;17.93
69316;BME280;56445;43.552;5.034;2023-05-18T05:10:20;101452.25;;;31.45;17.91
69316;BME280;56445;43.552;5.034;2023-05-18T05:12:48;101456.03;;;31.49;17.73
69316;BME280;56445;43.552;5.034;2023-05-18T05:15:16;101442.44;;;31.38;17.75
69316;BME280;56445;43.552;5.034;2023-05-18T05:17:45;101444.91;;;31.40;17.83
69316;BME280;56445;43.552;5.034;2023-05-18T05:20:13;101460.97;;;31.52;17.72
69316;BME280;56445;43.552;5.034;2023-05-18T05:22:40;101446.84;;;31.39;17.94
69316;BME280;56445;43.552;5.034;2023-05-18T05:25:08;101459.78;;;31.53;17.90
69316;BME280;56445;43.552;5.034;2023-05-18T05:28:04;101459.78;;;31.53;18.05
69316;BME280;56445;43.552;5.034;2023-05-18T05:30:54;101468.97;;;31.53;17.78
69316;BME280;56445;43.552;5.034;2023-05-18T05:33:21;101475.19;;;31.59;17.70
69316;BME280;56445;43.552;5.034;2023-05-18T05:35:48;101481.25;;;31.61;17.80
69316;BME280;56445;43.552;5.034;2023-05-18T05:38:16;101453.25;;;31.49;18.12
69316;BME280;56445;43.552;5.034;2023-05-18T05:40:43;101455.56;;;31.47;17.64
69316;BME280;56445;43.552;5.034;2023-05-18T05:43:11;101468.09;;;31.61;18.07
69316;BME280;56445;43.552;5.034;2023-05-18T05:45:38;101488.56;;;31.74;17.71
69316;BME280;56445;43.552;5.034;2023-05-18T05:48:05;101486.25;;;31.76;17.70
69316;BME280;56445;43.552;5.034;2023-05-18T05:50:33;101478.06;;;31.71;17.74
69316;BME280;56445;43.552;5.034;2023-05-18T05:53:00;101488.50;;;31.83;17.81
69316;BME280;56445;43.552;5.034;2023-05-18T05:55:36;101484.91;;;31.82;18.00
69316;BME280;56445;43.552;5.034;2023-05-18T05:58:08;101489.28;;;31.92;18.19
69316;BME280;56445;43.552;5.034;2023-05-18T06:00:35;101483.56;;;31.89;18.09
69316;BME280;56445;43.552;5.034;2023-05-18T06:03:02;101470.09;;;31.91;17.97
69316;BME280;56445;43.552;5.034;2023-05-18T06:05:39;101492.66;;;32.07;18.17
69316;BME280;56445;43.552;5.034;2023-05-18T06:08:11;101479.56;;;31.98;17.74
69316;BME280;56445;43.552;5.034;2023-05-18T06:10:51;101492.81;;;32.10;17.84
69316;BME280;56445;43.552;5.034;2023-05-18T06:13:52;101498.06;;;32.12;18.28
69316;BME280;56445;43.552;5.034;2023-05-18T06:16:23;101473.97;;;32.07;18.01
69316;BME280;56445;43.552;5.034;2023-05-18T06:18:51;101489.13;;;32.18;17.81
69316;BME280;56445;43.552;5.034;2023-05-18T06:21:59;101483.06;;;32.16;18.15
69316;BME280;56445;43.552;5.034;2023-05-18T06:24:43;101483.06;;;32.16;18.23
69316;BME280;56445;43.552;5.034;2023-05-18T06:27:13;101488.94;;;32.24;18.26
69316;BME280;56445;43.552;5.034;2023-05-18T06:29:44;101498.41;;;32.31;17.95
69316;BME280;56445;43.552;5.034;2023-05-18T06:32:12;101506.09;;;32.34;18.00
69316;BME280;56445;43.552;5.034;2023-05-18T06:34:39;101504.94;;;32.35;17.78
69316;BME280;56445;43.552;5.034;2023-05-18T06:37:16;101507.75;;;32.35;17.88
69316;BME280;56445;43.552;5.034;2023-05-18T06:39:48;101488.94;;;32.24;18.36
69316;BME280;56445;43.552;5.034;2023-05-18T06:42:20;101509.50;;;32.40;17.95
69316;BME280;56445;43.552;5.034;2023-05-18T06:44:49;101513.94;;;32.41;17.93
69316;BME280;56445;43.552;5.034;2023-05-18T06:47:20;101499.69;;;32.34;17.97
69316;BME280;56445;43.552;5.034;2023-05-18T06:49:55;101484.50;;;32.22;18.40
69316;BME280;56445;43.552;5.034;2023-05-18T06:52:26;101494.13;;;32.34;18.33
69316;BME280;56445;43.552;5.034;2023-05-18T06:54:55;101507.66;;;32.44;17.96
69316;BME280;56445;43.552;5.034;2023-05-18T06:57:35;101519.31;;;32.46;17.98
69316;BME280;56445;43.552;5.034;2023-05-18T07:00:06;101523.41;;;32.49;18.07
69316;BME280;56445;43.552;5.034;2023-05-18T07:02:36;101510.94;;;32.46;18.43
69316;BME280;56445;43.552;5.034;2023-05-18T07:05:04;101507.94;;;32.51;18.38
69316;BME280;56445;43.552;5.034;2023-05-18T07:07:35;101507.00;;;32.47;18.32
69316;BME280;56445;43.552;5.034;2023-05-18T07:10:03;101511.22;;;32.53;18.16
69316;BME280;56445;43.552;5.034;2023-05-18T07:12:31;101519.75;;;32.57;18.22
69316;BME280;56445;43.552;5.034;2023-05-18T07:14:58;101516.63;;;32.58;17.99
69316;BME280;56445;43.552;5.034;2023-05-18T07:17:25;101519.06;;;32.60;18.46
69316;BME280;56445;43.552;5.034;2023-05-18T07:19:52;101497.34;;;32.45;18.28
69316;BME280;56445;43.552;5.034;2023-05-18T07:22:19;101524.78;;;32.64;18.07
69316;BME280;56445;43.552;5.034;2023-05-18T07:24:46;101506.13;;;32.55;18.07
69316;BME280;56445;43.552;5.034;2023-05-18T07:27:17;101519.06;;;32.60;18.47
69316;BME280;56445;43.552;5.034;2023-05-18T07:29:49;101499.56;;;32.51;18.33
69316;BME280;56445;43.552;5.034;2023-05-18T07:32:16;101514.66;;;32.59;18.47
69316;BME280;56445;43.552;5.034;2023-05-18T07:34:51;101524.47;;;32.65;18.09
69316;BME280;56445;43.552;5.034;2023-05-18T07:37:18;101529.72;;;32.67;18.37
69316;BME280;56445;43.552;5.034;2023-05-18T07:39:45;101531.31;;;32.68;18.14
69316;BME280;56445;43.552;5.034;2023-05-18T07:42:12;101527.38;;;32.69;18.39
69316;BME280;56445;43.552;5.034;2023-05-18T07:44:39;101545.97;;;32.86;18.43
69316;BME280;56445;43.552;5.034;2023-05-18T07:47:07;101531.19;;;32.85;18.74
69316;BME280;56445;43.552;5.034;2023-05-18T07:49:34;101552.00;;;33.09;18.38
69316;BME280;56445;43.552;5.034;2023-05-18T07:52:01;101533.56;;;33.08;18.35
69316;BME280;56445;43.552;5.034;2023-05-18T07:54:28;101528.75;;;33.17;18.42
69316;BME280;56445;43.552;5.034;2023-05-18T07:56:56;101529.22;;;33.19;18.69
69316;BME280;56445;43.552;5.034;2023-05-18T07:59:26;101548.13;;;33.34;18.30
69316;BME280;56445;43.552;5.034;2023-05-18T08:01:53;101555.59;;;33.43;18.92
69316;BME280;56445;43.552;5.034;2023-05-18T08:04:23;101555.13;;;33.41;18.80
69316;BME280;56445;43.552;5.034;2023-05-18T08:06:50;101566.44;;;33.44;18.59
69316;BME280;56445;43.552;5.034;2023-05-18T08:09:21;101556.31;;;33.39;18.53
69316;BME280;56445;43.552;5.034;2023-05-18T08:11:48;101559.44;;;33.38;18.49
69316;BME280;56445;43.552;5.034;2023-05-18T08:14:16;101558.66;;;33.37;18.45
69316;BME280;56445;43.552;5.034;2023-05-18T08:16:46;101551.88;;;33.38;18.31
69316;BME280;56445;43.552;5.034;2023-05-18T08:19:13;101547.19;;;33.30;18.47
69316;BME280;56445;43.552;5.034;2023-05-18T08:21:43;101559.78;;;33.36;18.48
69316;BME280;56445;43.552;5.034;2023-05-18T08:24:12;101541.00;;;33.25;18.91
69316;BME280;56445;43.552;5.034;2023-05-18T08:26:43;101561.78;;;33.36;18.57
69316;BME280;56445;43.552;5.034;2023-05-18T08:29:13;101554.06;;;33.33;18.86
69316;BME280;56445;43.552;5.034;2023-05-18T08:31:42;101544.41;;;33.30;18.64
69316;BME280;56445;43.552;5.034;2023-05-18T08:34:11;101561.19;;;33.43;18.36
69316;BME280;56445;43.552;5.034;2023-05-18T08:36:38;101549.53;;;33.28;18.50
69316;BME280;56445;43.552;5.034;2023-05-18T08:39:09;101544.75;;;33.29;18.64
69316;BME280;56445;43.552;5.034;2023-05-18T08:44:25;101551.38;;;33.24;18.71
69316;BME280;56445;43.552;5.034;2023-05-18T08:46:55;101564.44;;;33.32;18.72
69316;BME280;56445;43.552;5.034;2023-05-18T08:49:30;101564.00;;;33.43;18.50
69316;BME280;56445;43.552;5.034;2023-05-18T08:52:02;101574.97;;;33.48;18.55
69316;BME280;56445;43.552;5.034;2023-05-18T08:54:30;101557.59;;;33.42;18.69
69316;BME280;56445;43.552;5.034;2023-05-18T08:56:59;101560.50;;;33.46;18.78
69316;BME280;56445;43.552;5.034;2023-05-18T09:02:03;101573.31;;;33.47;18.71
69316;BME280;56445;43.552;5.034;2023-05-18T09:04:31;101583.97;;;33.53;18.33
69316;BME280;56445;43.552;5.034;2023-05-18T09:07:12;101582.09;;;33.57;18.83
69316;BME280;56445;43.552;5.034;2023-05-18T09:09:40;101569.84;;;33.50;18.44
69316;BME280;56445;43.552;5.034;2023-05-18T09:12:13;101575.31;;;33.58;18.83
69316;BME280;56445;43.552;5.034;2023-05-18T09:14:42;101584.34;;;33.64;18.81
69316;BME280;56445;43.552;5.034;2023-05-18T09:17:12;101567.41;;;33.61;18.57
69316;BME280;56445;43.552;5.034;2023-05-18T09:19:46;101590.28;;;33.75;18.68
69316;BME280;56445;43.552;5.034;2023-05-18T09:22:26;101573.28;;;33.68;18.66
69316;BME280;56445;43.552;5.034;2023-05-18T09:25:09;101594.53;;;33.81;18.83
69316;BME280;56445;43.552;5.034;2023-05-18T09:27:39;101593.81;;;33.84;18.86
69316;BME280;56445;43.552;5.034;2023-05-18T09:30:12;101584.59;;;33.84;18.54
69316;BME280;56445;43.552;5.034;2023-05-18T09:32:45;101580.28;;;33.86;18.98
69316;BME280;56445;43.552;5.034;2023-05-18T09:35:14;101574.81;;;33.90;18.79
69316;BME280;56445;43.552;5.034;2023-05-18T09:37:42;101576.19;;;33.96;18.56
69316;BME280;56445;43.552;5.034;2023-05-18T09:40:10;101559.66;;;33.91;18.93
69316;BME280;56445;43.552;5.034;2023-05-18T09:42:44;101579.25;;;34.03;18.55
69316;BME280;56445;43.552;5.034;2023-05-18T09:45:20;101601.78;;;34.07;18.88
69316;BME280;56445;43.552;5.034;2023-05-18T09:47:50;101596.16;;;34.07;18.73
69316;BME280;56445;43.552;5.034;2023-05-18T09:50:24;101594.53;;;34.06;18.63
69316;BME280;56445;43.552;5.034;2023-05-18T09:52:54;101604.56;;;34.07;18.73
69316;BME280;56445;43.552;5.034;2023-05-18T09:57:55;101601.41;;;33.96;18.97
69316;BME280;56445;43.552;5.034;2023-05-18T10:00:24;101592.28;;;33.87;18.94
69316;BME280;56445;43.552;5.034;2023-05-18T10:02:54;101606.53;;;33.94;18.97
69316;BME280;56445;43.552;5.034;2023-05-18T10:05:28;101620.44;;;34.03;18.90
69316;BME280;56445;43.552;5.034;2023-05-18T10:08:05;101612.59;;;33.96;18.69
69316;BME280;56445;43.552;5.034;2023-05-18T10:10:37;101596.41;;;33.89;18.74
69316;BME280;56445;43.552;5.034;2023-05-18T10:13:07;101621.13;;;34.00;18.71
69316;BME280;56445;43.552;5.034;2023-05-18T10:15:34;101625.44;;;33.97;19.11
69316;BME280;56445;43.552;5.034;2023-05-18T10:18:02;101621.59;;;33.89;19.02
69316;BME280;56445;43.552;5.034;2023-05-18T10:20:32;101621.94;;;33.88;18.64
69316;BME280;56445;43.552;5.034;2023-05-18T10:23:02;101602.53;;;33.70;19.01
69316;BME280;56445;43.552;5.034;2023-05-18T10:25:32;101605.13;;;33.63;18.72
69316;BME280;56445;43.552;5.034;2023-05-18T10:28:05;101622.94;;;33.71;18.96
69316;BME280;56445;43.552;5.034;2023-05-18T10:30:33;101600.75;;;33.53;19.09
69316;BME280;56445;43.552;5.034;2023-05-18T10:33:01;101611.03;;;33.62;18.86
69316;BME280;56445;43.552;5.034;2023-05-18T10:35:38;101615.31;;;33.59;19.06
69316;BME280;56445;43.552;5.034;2023-05-18T10:38:07;101608.31;;;33.53;19.09
69316;BME280;56445;43.552;5.034;2023-05-18T10:40:35;101613.81;;;33.49;19.32
69316;BME280;56445;43.552;5.034;2023-05-18T10:43:03;101620.66;;;33.52;19.41
69316;BME280;56445;43.552;5.034;2023-05-18T10:45:34;101619.03;;;33.51;18.88
69316;BME280;56445;43.552;5.034;2023-05-18T10:48:04;101623.00;;;33.50;18.97
69316;BME280;56445;43.552;5.034;2023-05-18T10:50:37;101618.56;;;33.49;18.97
69316;BME280;56445;43.552;5.034;2023-05-18T10:53:05;101625.09;;;33.53;19.06
69316;BME280;56445;43.552;5.034;2023-05-18T10:55:34;101607.69;;;33.47;19.53
69316;BME280;56445;43.552;5.034;2023-05-18T10:58:06;101609.22;;;33.45;19.26
69316;BME280;56445;43.552;5.034;2023-05-18T11:00:36;101634.09;;;33.58;19.42
69316;BME280;56445;43.552;5.034;2023-05-18T11:03:13;101630.47;;;33.58;19.32
69316;BME280;56445;43.552;5.034;2023-05-18T11:05:40;101618.09;;;33.47;19.30
69316;BME280;56445;43.552;5.034;2023-05-18T11:08:08;101633.47;;;33.53;19.22
69316;BME280;56445;43.552;5.034;2023-05-18T11:10:41;101616.81;;;33.44;19.43
69316;BME280;56445;43.552;5.034;2023-05-18T11:13:09;101625.88;;;33.41;19.18
69316;BME280;56445;43.552;5.034;2023-05-18T11:18:25;101625.19;;;33.44;19.36
69316;BME280;56445;43.552;5.034;2023-05-18T11:20:59;101624.38;;;33.44;19.63
69316;BME280;56445;43.552;5.034;2023-05-18T11:23:33;101633.38;;;33.49;19.48
69316;BME280;56445;43.552;5.034;2023-05-18T11:26:00;101622.53;;;33.48;19.55
69316;BME280;56445;43.552;5.034;2023-05-18T11:28:29;101621.22;;;33.45;19.41
69316;BME280;56445;43.552;5.034;2023-05-18T11:30:57;101607.69;;;33.35;19.86
69316;BME280;56445;43.552;5.034;2023-05-18T11:33:26;101599.63;;;33.33;19.93
69316;BME280;56445;43.552;5.034;2023-05-18T11:36:11;101598.47;;;33.34;19.77
69316;BME280;56445;43.552;5.034;2023-05-18T11:38:54;101618.44;;;33.45;19.57
69316;BME280;56445;43.552;5.034;2023-05-18T11:41:38;101624.00;;;33.45;19.35
69316;BME280;56445;43.552;5.034;2023-05-18T11:46:54;101613.19;;;33.44;19.97
69316;BME280;56445;43.552;5.034;2023-05-18T11:49:31;101604.91;;;33.47;19.99
69316;BME280;56445;43.552;5.034;2023-05-18T11:57:15;101587.09;;;33.39;20.01
69316;BME280;56445;43.552;5.034;2023-05-18T11:59:46;101590.72;;;33.52;19.65
69316;BME280;56445;43.552;5.034;2023-05-18T12:02:25;101599.22;;;33.56;19.65
69316;BME280;56445;43.552;5.034;2023-05-18T12:04:54;101603.88;;;33.52;19.65
69316;BME280;56445;43.552;5.034;2023-05-18T12:07:22;101587.31;;;33.47;19.93
69316;BME280;56445;43.552;5.034;2023-05-18T12:10:20;101595.97;;;33.54;19.81
69316;BME280;56445;43.552;5.034;2023-05-18T12:12:48;101584.50;;;33.47;20.24
69316;BME280;56445;43.552;5.034;2023-05-18T12:15:21;101600.16;;;33.60;20.16
69316;BME280;56445;43.552;5.034;2023-05-18T12:17:49;101597.38;;;33.60;20.23
69316;BME280;56445;43.552;5.034;2023-05-18T12:20:18;101594.56;;;33.60;19.93
69316;BME280;56445;43.552;5.034;2023-05-18T12:22:49;101597.25;;;33.56;20.22
69316;BME280;56445;43.552;5.034;2023-05-18T12:25:19;101600.16;;;33.60;20.33
69316;BME280;56445;43.552;5.034;2023-05-18T12:27:48;101583.13;;;33.53;20.05
69316;BME280;56445;43.552;5.034;2023-05-18T12:30:25;101573.59;;;33.54;19.96
69316;BME280;56445;43.552;5.034;2023-05-18T12:33:02;101594.41;;;33.65;20.20
69316;BME280;56445;43.552;5.034;2023-05-18T12:35:30;101587.50;;;33.63;19.87
69316;BME280;56445;43.552;5.034;2023-05-18T12:37:58;101596.94;;;33.70;20.12
69316;BME280;56445;43.552;5.034;2023-05-18T12:40:34;101604.06;;;33.80;20.34
69316;BME280;56445;43.552;5.034;2023-05-18T12:43:12;101594.63;;;33.72;20.30
69316;BME280;56445;43.552;5.034;2023-05-18T12:45:39;101594.41;;;33.77;20.39
69316;BME280;56445;43.552;5.034;2023-05-18T12:48:09;101616.34;;;33.88;19.91
69316;BME280;56445;43.552;5.034;2023-05-18T12:50:45;101602.09;;;33.81;20.20
69316;BME280;56445;43.552;5.034;2023-05-18T12:53:12;101618.06;;;33.92;20.14
69316;BME280;56445;43.552;5.034;2023-05-18T12:55:39;101602.81;;;33.90;20.10
69316;BME280;56445;43.552;5.034;2023-05-18T12:58:11;101604.44;;;33.91;20.54
69316;BME280;56445;43.552;5.034;2023-05-18T13:00:47;101606.06;;;33.92;20.50
69316;BME280;56445;43.552;5.034;2023-05-18T13:03:18;101613.78;;;33.95;20.37
69316;BME280;56445;43.552;5.034;2023-05-18T13:06:08;101618.06;;;33.92;20.26
69316;BME280;56445;43.552;5.034;2023-05-18T13:08:36;101593.09;;;33.75;20.43
69316;BME280;56445;43.552;5.034;2023-05-18T13:11:07;101620.28;;;33.87;20.20
69316;BME280;56445;43.552;5.034;2023-05-18T13:14:09;101617.72;;;33.82;20.13
69316;BME280;56445;43.552;5.034;2023-05-18T13:16:40;101610.72;;;33.75;20.60
69316;BME280;56445;43.552;5.034;2023-05-18T13:19:10;101585.16;;;33.65;20.24
69316;BME280;56445;43.552;5.034;2023-05-18T13:21:42;101595.19;;;33.66;20.14
69316;BME280;56445;43.552;5.034;2023-05-18T13:24:09;101598.47;;;33.68;20.53
69316;BME280;56445;43.552;5.034;2023-05-18T13:26:36;101599.63;;;33.67;20.29
69316;BME280;56445;43.552;5.034;2023-05-18T13:29:03;101611.75;;;33.71;20.21
69316;BME280;56445;43.552;5.034;2023-05-18T13:31:30;101582.44;;;33.56;20.33
69316;BME280;56445;43.552;5.034;2023-05-18T13:33:57;101602.41;;;33.67;20.33
69316;BME280;56445;43.552;5.034;2023-05-18T13:36:25;101593.16;;;33.54;20.23
69316;BME280;56445;43.552;5.034;2023-05-18T13:38:55;101583.13;;;33.53;20.69
69316;BME280;56445;43.552;5.034;2023-05-18T13:41:22;101604.13;;;33.59;20.52
69316;BME280;56445;43.552;5.034;2023-05-18T13:43:49;101575.19;;;33.43;20.53
69316;BME280;56445;43.552;5.034;2023-05-18T13:46:16;101593.38;;;33.49;20.57
69316;BME280;56445;43.552;5.034;2023-05-18T13:48:45;101593.63;;;33.44;20.67
69316;BME280;56445;43.552;5.034;2023-05-18T13:51:12;101598.38;;;33.43;20.71
69316;BME280;56445;43.552;5.034;2023-05-18T13:53:40;101595.22;;;33.45;20.40
69316;BME280;56445;43.552;5.034;2023-05-18T13:56:07;101594.09;;;33.46;20.68
69316;BME280;56445;43.552;5.034;2023-05-18T13:58:34;101598.97;;;33.49;20.64
69316;BME280;56445;43.552;5.034;2023-05-18T14:01:03;101600.63;;;33.50;20.29
69316;BME280;56445;43.552;5.034;2023-05-18T14:03:34;101587.41;;;33.38;20.76
69316;BME280;56445;43.552;5.034;2023-05-18T14:06:02;101589.44;;;33.50;20.85
69316;BME280;56445;43.552;5.034;2023-05-18T14:08:29;101579.84;;;33.38;20.93
69316;BME280;56445;43.552;5.034;2023-05-18T14:10:56;101597.94;;;33.53;20.76
69316;BME280;56445;43.552;5.034;2023-05-18T14:13:24;101595.16;;;33.53;20.72
69316;BME280;56445;43.552;5.034;2023-05-18T14:15:51;101579.50;;;33.40;20.59
69316;BME280;56445;43.552;5.034;2023-05-18T14:18:18;101579.38;;;33.36;21.03
69316;BME280;56445;43.552;5.034;2023-05-18T14:20:45;101596.66;;;33.51;20.99
69316;BME280;56445;43.552;5.034;2023-05-18T14:23:14;101602.09;;;33.47;20.81
69316;BME280;56445;43.552;5.034;2023-05-18T14:25:42;101591.63;;;33.44;20.94
69316;BME280;56445;43.552;5.034;2023-05-18T14:28:11;101594.22;;;33.49;20.52
69316;BME280;56445;43.552;5.034;2023-05-18T14:30:39;101582.63;;;33.38;20.64
69316;BME280;56445;43.552;5.034;2023-05-18T14:33:06;101585.22;;;33.44;20.58
69316;BME280;56445;43.552;5.034;2023-05-18T14:35:33;101575.16;;;33.30;20.75
69316;BME280;56445;43.552;5.034;2023-05-18T14:38:01;101590.81;;;33.44;20.94
69316;BME280;56445;43.552;5.034;2023-05-18T14:40:28;101578.91;;;33.34;20.66
69316;BME280;56445;43.552;5.034;2023-05-18T14:42:56;101570.50;;;33.34;20.91
69316;BME280;56445;43.552;5.034;2023-05-18T14:45:23;101578.28;;;33.29;20.51
69316;BME280;56445;43.552;5.034;2023-05-18T14:47:50;101571.91;;;33.28;20.84
69316;BME280;56445;43.552;5.034;2023-05-18T14:50:18;101587.50;;;33.29;20.81
69316;BME280;56445;43.552;5.034;2023-05-18T14:52:45;101564.53;;;33.24;21.07
69316;BME280;56445;43.552;5.034;2023-05-18T14:55:12;101564.41;;;33.20;20.90
69316;BME280;56445;43.552;5.034;2023-05-18T14:57:42;101580.75;;;33.30;20.81
69316;BME280;56445;43.552;5.034;2023-05-18T15:00:10;101574.69;;;33.28;20.98
69316;BME280;56445;43.552;5.034;2023-05-18T15:02:37;101565.34;;;33.24;21.01
69316;BME280;56445;43.552;5.034;2023-05-18T15:05:05;101563.72;;;33.23;21.12
69316;BME280;56445;43.552;5.034;2023-05-18T15:07:33;101571.75;;;33.25;20.96
69316;BME280;56445;43.552;5.034;2023-05-18T15:10:02;101577.97;;;33.30;20.87
69316;BME280;56445;43.552;5.034;2023-05-18T15:12:29;101570.94;;;33.24;20.99
69316;BME280;56445;43.552;5.034;2023-05-18T15:14:56;101573.41;;;33.26;20.98
69316;BME280;56445;43.552;5.034;2023-05-18T15:17:24;101581.56;;;33.31;20.63
69316;BME280;56445;43.552;5.034;2023-05-18T15:20:01;101558.47;;;33.22;20.92
69316;BME280;56445;43.552;5.034;2023-05-18T15:22:29;101547.38;;;33.13;21.02
69316;BME280;56445;43.552;5.034;2023-05-18T15:24:57;101567.69;;;33.22;20.96
69316;BME280;56445;43.552;5.034;2023-05-18T15:27:26;101569.06;;;33.16;21.21
69316;BME280;56445;43.552;5.034;2023-05-18T15:29:53;101579.41;;;33.15;20.71
69316;BME280;56445;43.552;5.034;2023-05-18T15:32:20;101574.34;;;33.09;21.01
69316;BME280;56445;43.552;5.034;2023-05-18T15:34:47;101571.75;;;33.04;20.77
69316;BME280;56445;43.552;5.034;2023-05-18T15:37:14;101583.88;;;33.08;21.22
69316;BME280;56445;43.552;5.034;2023-05-18T15:39:43;101574.09;;;33.02;20.70
69316;BME280;56445;43.552;5.034;2023-05-18T15:42:10;101586.03;;;33.11;21.05
69316;BME280;56445;43.552;5.034;2023-05-18T15:44:37;101583.66;;;33.00;21.04
69316;BME280;56445;43.552;5.034;2023-05-18T15:47:05;101577.44;;;32.95;21.23
69316;BME280;56445;43.552;5.034;2023-05-18T15:49:33;101579.56;;;32.98;21.01
69316;BME280;56445;43.552;5.034;2023-05-18T15:52:00;101549.31;;;32.79;20.76
69316;BME280;56445;43.552;5.034;2023-05-18T15:54:28;101576.16;;;32.92;21.04
69316;BME280;56445;43.552;5.034;2023-05-18T15:56:55;101561.44;;;32.83;21.03
69316;BME280;56445;43.552;5.034;2023-05-18T15:59:22;101557.22;;;32.77;21.00
69316;BME280;56445;43.552;5.034;2023-05-18T16:01:49;101572.28;;;32.85;21.42
69316;BME280;56445;43.552;5.034;2023-05-18T16:04:17;101572.81;;;32.78;21.21
69316;BME280;56445;43.552;5.034;2023-05-18T16:06:44;101582.16;;;32.82;21.36
69316;BME280;56445;43.552;5.034;2023-05-18T16:09:11;101571.88;;;32.74;21.45
69316;BME280;56445;43.552;5.034;2023-05-18T16:11:38;101570.72;;;32.75;21.21
69316;BME280;56445;43.552;5.034;2023-05-18T16:14:06;101579.59;;;32.77;21.60
69316;BME280;56445;43.552;5.034;2023-05-18T16:16:33;101560.44;;;32.67;21.51
69316;BME280;56445;43.552;5.034;2023-05-18T16:19:00;101561.38;;;32.71;21.37
69316;BME280;56445;43.552;5.034;2023-05-18T16:21:28;101573.03;;;32.73;21.32
69316;BME280;56445;43.552;5.034;2023-05-18T16:23:55;101575.50;;;32.74;21.40
69316;BME280;56445;43.552;5.034;2023-05-18T16:26:23;101551.59;;;32.65;21.47
69316;BME280;56445;43.552;5.034;2023-05-18T16:28:50;101558.59;;;32.71;21.76
69316;BME280;56445;43.552;5.034;2023-05-18T16:31:17;101539.94;;;32.63;21.46
69316;BME280;56445;43.552;5.034;2023-05-18T16:33:45;101539.94;;;32.63;21.55
69316;BME280;56445;43.552;5.034;2023-05-18T16:36:12;101539.22;;;32.66;21.61
69316;BME280;56445;43.552;5.034;2023-05-18T16:38:39;101551.84;;;32.72;21.32
69316;BME280;56445;43.552;5.034;2023-05-18T16:41:07;101545.78;;;32.70;21.76
69316;BME280;56445;43.552;5.034;2023-05-18T16:43:34;101556.13;;;32.69;21.42
69316;BME280;56445;43.552;5.034;2023-05-18T16:46:02;101552.06;;;32.67;21.25
69316;BME280;56445;43.552;5.034;2023-05-18T16:48:29;101530.28;;;32.51;21.47
69316;BME280;56445;43.552;5.034;2023-05-18T16:50:56;101532.28;;;32.51;21.69
69316;BME280;56445;43.552;5.034;2023-05-18T16:53:23;101545.88;;;32.52;21.44
69316;BME280;56445;43.552;5.034;2023-05-18T16:55:50;101538.38;;;32.44;21.82
69316;BME280;56445;43.552;5.034;2023-05-18T16:58:17;101538.06;;;32.46;21.58
69316;BME280;56445;43.552;5.034;2023-05-18T17:00:45;101539.56;;;32.43;21.83
69316;BME280;56445;43.552;5.034;2023-05-18T17:03:12;101549.69;;;32.48;21.61
69316;BME280;56445;43.552;5.034;2023-05-18T17:05:39;101566.13;;;32.49;21.62
69316;BME280;56445;43.552;5.034;2023-05-18T17:08:06;101559.72;;;32.49;21.99
69316;BME280;56445;43.552;5.034;2023-05-18T17:10:33;101526.66;;;32.30;21.60
69316;BME280;56445;43.552;5.034;2023-05-18T17:13:01;101548.59;;;32.40;21.74
69316;BME280;56445;43.552;5.034;2023-05-18T17:15:28;101538.66;;;32.30;21.81
69316;BME280;56445;43.552;5.034;2023-05-18T17:17:56;101558.16;;;32.39;21.71
69316;BME280;56445;43.552;5.034;2023-05-18T17:20:24;101547.16;;;32.34;22.00
69316;BME280;56445;43.552;5.034;2023-05-18T17:22:51;101542.13;;;32.27;21.68
69316;BME280;56445;43.552;5.034;2023-05-18T17:25:19;101549.66;;;32.27;21.56
69316;BME280;56445;43.552;5.034;2023-05-18T17:27:46;101557.88;;;32.32;21.86
69316;BME280;56445;43.552;5.034;2023-05-18T17:30:13;101560.19;;;32.30;22.03
69316;BME280;56445;43.552;5.034;2023-05-18T17:32:40;101554.78;;;32.25;21.70
69316;BME280;56445;43.552;5.034;2023-05-18T17:35:10;101551.88;;;32.21;22.13
69316;BME280;56445;43.552;5.034;2023-05-18T17:37:39;101567.59;;;32.26;22.12
69316;BME280;56445;43.552;5.034;2023-05-18T17:40:07;101558.94;;;32.18;22.19
69316;BME280;56445;43.552;5.034;2023-05-18T17:42:35;101560.72;;;32.23;21.63
69316;BME280;56445;43.552;5.034;2023-05-18T17:45:02;101543.38;;;32.09;22.14
69316;BME280;56445;43.552;5.034;2023-05-18T17:47:30;101566.16;;;32.19;22.05
69316;BME280;56445;43.552;5.034;2023-05-18T17:49:57;101547.00;;;32.09;22.26
69316;BME280;56445;43.552;5.034;2023-05-18T17:52:24;101545.38;;;32.08;21.80
69316;BME280;56445;43.552;5.034;2023-05-18T17:54:51;101560.44;;;32.16;21.76
69316;BME280;56445;43.552;5.034;2023-05-18T17:57:18;101544.88;;;32.06;21.84
69316;BME280;56445;43.552;5.034;2023-05-18T17:59:45;101558.66;;;32.11;22.16
69316;BME280;56445;43.552;5.034;2023-05-18T18:02:12;101542.44;;;32.05;22.06
69316;BME280;56445;43.552;5.034;2023-05-18T18:04:39;101564.72;;;32.13;21.73
69316;BME280;56445;43.552;5.034;2023-05-18T18:07:07;101533.41;;;31.99;22.34
69316;BME280;56445;43.552;5.034;2023-05-18T18:09:34;101557.34;;;32.09;22.21
69316;BME280;56445;43.552;5.034;2023-05-18T18:12:03;101565.88;;;32.12;22.22
69316;BME280;56445;43.552;5.034;2023-05-18T18:14:30;101559.47;;;32.12;21.93
69316;BME280;56445;43.552;5.034;2023-05-18T18:16:57;101557.81;;;32.11;21.83
69316;BME280;56445;43.552;5.034;2023-05-18T18:19:25;101553.44;;;32.01;21.81
69316;BME280;56445;43.552;5.034;2023-05-18T18:21:52;101550.81;;;31.96;21.94